createdAt,value
2019-03-16T00:01:20.579Z,95000.41
2019-03-16T00:03:51.786Z,95028.25
2019-03-16T00:06:23.947Z,95021.82
2019-03-16T00:08:59.665Z,95028.31
2019-03-16T00:11:32.762Z,95045.52
2019-03-16T00:14:03.941Z,95036.59
2019-03-16T00:16:39.590Z,95037.95
2019-03-16T00:19:13.022Z,95033.73
2019-03-16T00:21:47.174Z,95016.50
2019-03-16T00:24:19.902Z,95015.61
2019-03-16T00:26:51.517Z,95002.67
2019-03-16T00:29:25.345Z,95002.55
2019-03-16T00:32:12.621Z,95037.50
2019-03-16T00:34:33.155Z,95030.36
2019-03-16T00:37:07.677Z,95020.88
2019-03-16T00:39:41.259Z,95025.59
2019-03-16T00:42:13.220Z,95021.16
2019-03-16T00:44:47.255Z,95053.53
2019-03-16T00:47:23.192Z,95051.72
2019-03-16T00:49:55.325Z,95050.06
2019-03-16T00:52:28.264Z,95050.48
2019-03-16T00:55:01.079Z,95055.17
2019-03-16T00:57:34.355Z,95063.17
2019-03-16T01:00:08.693Z,95054.04
2019-03-16T01:02:42.427Z,95047.41
2019-03-16T01:05:15.955Z,95036.73
2019-03-16T01:07:48.323Z,95038.98
2019-03-16T01:10:20.274Z,95017.55
2019-03-16T01:12:51.488Z,95040.26
2019-03-16T01:15:22.738Z,95037.17
2019-03-16T01:17:55.399Z,95044.35
2019-03-16T01:20:30.058Z,95039.59
2019-03-16T01:23:03.169Z,95039.66
2019-03-16T01:25:38.974Z,95055.16
2019-03-16T01:28:12.085Z,95042.97
2019-03-16T01:30:43.543Z,95048.33
2019-03-16T01:33:14.835Z,95049.47
2019-03-16T01:35:46.411Z,95045.30
2019-03-16T01:38:19.381Z,95046.59
2019-03-16T01:40:51.631Z,95052.17
2019-03-16T01:43:25.274Z,95041.47
2019-03-16T01:45:58.639Z,95037.48
2019-03-16T01:48:33.476Z,95020.91
2019-03-16T01:51:06.436Z,95028.62
2019-03-16T01:53:40.140Z,95028.02
2019-03-16T01:56:14.315Z,95018.36
2019-03-16T01:58:48.656Z,95057.20
2019-03-16T02:01:22.653Z,95052.84
2019-03-16T02:03:56.283Z,95058.09
2019-03-16T02:06:28.428Z,95051.77
2019-03-16T02:09:00.565Z,95051.38
2019-03-16T02:11:34.668Z,95055.08
2019-03-16T02:14:08.585Z,95057.95
2019-03-16T02:16:39.795Z,95090.50
2019-03-16T02:19:13.647Z,95078.63
2019-03-16T02:21:46.909Z,95086.45
2019-03-16T02:24:18.979Z,95085.09
2019-03-16T02:26:50.742Z,95091.28
2019-03-16T02:29:24.675Z,95083.57
2019-03-16T02:31:58.329Z,95090.28
2019-03-16T02:34:30.724Z,95089.29
2019-03-16T02:37:03.787Z,95098.17
2019-03-16T02:39:37.713Z,95098.92
2019-03-16T02:42:18.425Z,95096.97
2019-03-16T02:44:52.676Z,95092.45
2019-03-16T02:47:24.831Z,95084.99
2019-03-16T02:49:57.824Z,95096.36
2019-03-16T02:52:32.501Z,95104.03
2019-03-16T02:55:04.260Z,95099.77
2019-03-16T02:57:37.711Z,95091.56
2019-03-16T03:00:11.822Z,95114.27
2019-03-16T03:02:47.450Z,95113.02
2019-03-16T03:05:18.853Z,95121.94
2019-03-16T03:07:51.943Z,95134.05
2019-03-16T03:10:25.174Z,95130.89
2019-03-16T03:12:57.769Z,95098.92
2019-03-16T03:15:31.829Z,95115.40
2019-03-16T03:18:03.741Z,95123.22
2019-03-16T03:20:34.965Z,95123.07
2019-03-16T03:23:08.934Z,95134.19
2019-03-16T03:25:40.156Z,95136.39
2019-03-16T03:28:13.308Z,95140.97
2019-03-16T03:30:47.153Z,95160.05
2019-03-16T03:33:20.420Z,95142.67
2019-03-16T03:35:51.952Z,95154.53
2019-03-16T03:38:25.269Z,95150.20
2019-03-16T03:41:01.352Z,95160.11
2019-03-16T03:43:31.503Z,95161.53
2019-03-16T03:46:04.868Z,95164.46
2019-03-16T03:48:39.505Z,95181.63
2019-03-16T03:51:13.092Z,95166.28
2019-03-16T03:53:45.404Z,95184.05
2019-03-16T03:56:18.116Z,95170.80
2019-03-16T03:59:02.117Z,95186.70
2019-03-16T04:01:34.299Z,95180.77
2019-03-16T04:04:15.660Z,95201.68
2019-03-16T04:06:52.547Z,95200.67
2019-03-16T04:09:26.006Z,95201.28
2019-03-16T04:11:58.134Z,95199.27
2019-03-16T04:14:33.603Z,95194.23
2019-03-16T04:17:06.403Z,95202.36
2019-03-16T04:19:41.075Z,95212.73
2019-03-16T04:22:13.248Z,95227.30
2019-03-16T04:24:46.220Z,95229.81
2019-03-16T04:27:20.785Z,95231.77
2019-03-16T04:29:52.169Z,95242.73
2019-03-16T04:32:25.281Z,95256.62
2019-03-16T04:34:56.826Z,95255.70
2019-03-16T04:37:29.443Z,95254.16
2019-03-16T04:40:01.171Z,95271.82
2019-03-16T04:42:35.176Z,95248.94
2019-03-16T04:45:07.280Z,95282.24
2019-03-16T04:47:43.052Z,95265.19
2019-03-16T04:50:16.297Z,95265.15
2019-03-16T04:52:51.060Z,95281.53
2019-03-16T04:55:24.376Z,95268.77
2019-03-16T04:57:58.375Z,95276.52
2019-03-16T05:00:31.232Z,95286.09
2019-03-16T05:03:04.429Z,95284.85
2019-03-16T05:05:37.247Z,95301.69
2019-03-16T05:08:10.412Z,95306.36
2019-03-16T05:10:46.308Z,95305.57
2019-03-16T05:13:20.581Z,95317.62
2019-03-16T05:15:52.452Z,95323.75
2019-03-16T05:18:26.272Z,95328.87
2019-03-16T05:20:59.610Z,95326.55
2019-03-16T05:23:34.180Z,95320.05
2019-03-16T05:26:09.201Z,95329.36
2019-03-16T05:28:40.454Z,95332.37
2019-03-16T05:31:14.462Z,95324.73
2019-03-16T05:33:46.578Z,95330.98
2019-03-16T05:36:19.447Z,95334.92
2019-03-16T05:38:52.052Z,95349.77
2019-03-16T05:41:25.076Z,95355.77
2019-03-16T05:43:59.324Z,95371.77
2019-03-16T05:46:31.409Z,95381.05
2019-03-16T05:49:02.808Z,95373.87
2019-03-16T05:51:34.425Z,95371.89
2019-03-16T05:54:07.916Z,95373.87
2019-03-16T05:56:41.521Z,95377.81
2019-03-16T05:59:13.697Z,95381.06
2019-03-16T06:01:45.675Z,95393.23
2019-03-16T06:04:19.604Z,95399.02
2019-03-16T06:06:55.622Z,95413.87
2019-03-16T06:09:29.642Z,95410.28
2019-03-16T06:12:01.632Z,95415.11
2019-03-16T06:14:32.805Z,95422.78
2019-03-16T06:17:04.624Z,95435.05
2019-03-16T06:19:38.683Z,95425.79
2019-03-16T06:22:11.013Z,95436.32
2019-03-16T06:24:43.641Z,95433.77
2019-03-16T06:27:18.043Z,95440.27
2019-03-16T06:29:49.811Z,95448.83
2019-03-16T06:32:22.800Z,95446.88
2019-03-16T06:34:56.174Z,95453.14
2019-03-16T06:37:34.015Z,95460.19
2019-03-16T06:40:01.773Z,95461.80
2019-03-16T06:42:36.754Z,95467.84
2019-03-16T06:45:09.623Z,95465.64
2019-03-16T06:47:43.930Z,95468.65
2019-03-16T06:50:16.693Z,95475.72
2019-03-16T06:52:49.644Z,95476.53
2019-03-16T06:55:22.803Z,95482.09
2019-03-16T06:57:56.278Z,95483.73
2019-03-16T07:00:27.852Z,95486.63
2019-03-16T07:03:02.346Z,95493.58
2019-03-16T07:05:38.771Z,95504.82
2019-03-16T07:08:07.960Z,95504.59
2019-03-16T07:10:43.546Z,95510.15
2019-03-16T07:13:14.941Z,95503.66
2019-03-16T07:15:47.460Z,95513.87
2019-03-16T07:18:20.070Z,95515.11
2019-03-16T07:20:52.325Z,95523.81
2019-03-16T07:23:26.185Z,95520.47
2019-03-16T07:25:58.936Z,95522.55
2019-03-16T07:28:32.028Z,95529.86
2019-03-16T07:31:06.303Z,95529.98
2019-03-16T07:33:38.455Z,95530.89
2019-03-16T07:36:14.127Z,95533.20
2019-03-16T07:38:48.129Z,95533.68
2019-03-16T07:41:20.071Z,95537.71
2019-03-16T07:43:52.338Z,95534.71
2019-03-16T07:46:25.052Z,95551.51
2019-03-16T07:48:59.004Z,95551.75
2019-03-16T07:51:32.086Z,95553.81
2019-03-16T07:54:04.129Z,95562.88
2019-03-16T07:56:38.068Z,95561.70
2019-03-16T07:59:11.768Z,95572.98
2019-03-16T08:01:43.473Z,95571.81
2019-03-16T08:04:15.162Z,95574.49
2019-03-16T08:06:50.040Z,95581.20
2019-03-16T08:09:23.302Z,95581.33
2019-03-16T08:11:58.021Z,95583.41
2019-03-16T08:14:29.240Z,95582.13
2019-03-16T08:17:01.222Z,95586.55
2019-03-16T08:19:36.043Z,95588.86
2019-03-16T08:22:07.341Z,95587.59
2019-03-16T08:24:40.989Z,95595.69
2019-03-16T08:27:13.203Z,95594.53
2019-03-16T08:29:47.040Z,95599.52
2019-03-16T08:32:19.429Z,95601.37
2019-03-16T08:34:52.235Z,95605.89
2019-03-16T08:37:29.614Z,95606.72
2019-03-16T08:40:01.500Z,95607.66
2019-03-16T08:42:33.884Z,95608.94
2019-03-16T08:45:07.437Z,95605.41
2019-03-16T08:47:41.217Z,95604.13
2019-03-16T08:50:14.432Z,95599.23
2019-03-16T08:52:47.413Z,95599.02
2019-03-16T08:55:19.372Z,95601.45
2019-03-16T08:57:52.413Z,95604.47
2019-03-16T09:00:24.360Z,95607.84
2019-03-16T09:02:56.303Z,95604.38
2019-03-16T09:05:28.488Z,95609.12
2019-03-16T09:08:01.301Z,95614.47
2019-03-16T09:10:34.322Z,95605.73
2019-03-16T09:13:09.124Z,95620.48
2019-03-16T09:15:40.521Z,95620.56
2019-03-16T09:18:14.080Z,95616.11
2019-03-16T09:20:46.553Z,95614.71
2019-03-16T09:23:20.734Z,95618.05
2019-03-16T09:25:52.294Z,95623.61
2019-03-16T09:28:27.179Z,95627.84
2019-03-16T09:30:58.382Z,95628.17
2019-03-16T09:33:33.194Z,95634.46
2019-03-16T09:36:04.455Z,95636.53
2019-03-16T09:38:39.416Z,95630.36
2019-03-16T09:41:10.711Z,95637.08
2019-03-16T09:43:46.198Z,95637.41
2019-03-16T09:46:20.816Z,95639.27
2019-03-16T09:48:52.300Z,95641.45
2019-03-16T09:51:24.184Z,95643.55
2019-03-16T09:53:56.783Z,95645.89
2019-03-16T09:56:31.016Z,95643.67
2019-03-16T09:59:04.726Z,95634.28
2019-03-16T10:01:37.722Z,95641.25
2019-03-16T10:04:11.980Z,95639.97
2019-03-16T10:06:43.776Z,95642.31
2019-03-16T10:09:15.266Z,95641.39
2019-03-16T10:11:47.830Z,95635.59
2019-03-16T10:14:20.603Z,95630.36
2019-03-16T10:16:51.798Z,95635.02
2019-03-16T10:19:23.807Z,95635.47
2019-03-16T10:21:55.830Z,95638.73
2019-03-16T10:24:28.768Z,95634.86
2019-03-16T10:27:01.654Z,95637.78
2019-03-16T10:29:35.805Z,95625.92
2019-03-16T10:32:08.137Z,95629.75
2019-03-16T10:34:40.843Z,95633.70
2019-03-16T10:37:13.940Z,95627.77
2019-03-16T10:39:46.705Z,95637.08
2019-03-16T10:42:19.963Z,95627.84
2019-03-16T10:44:52.504Z,95627.64
2019-03-16T10:47:25.939Z,95621.59
2019-03-16T10:50:01.724Z,95618.58
2019-03-16T10:52:35.272Z,95610.97
2019-03-16T10:55:08.885Z,95607.27
2019-03-16T10:57:48.023Z,95605.98
2019-03-16T11:00:20.014Z,95602.53
2019-03-16T11:02:51.987Z,95594.80
2019-03-16T11:05:26.753Z,95602.79
2019-03-16T11:07:59.051Z,95591.02
2019-03-16T11:10:33.107Z,95597.33
2019-03-16T11:13:06.617Z,95588.89
2019-03-16T11:15:43.334Z,95583.47
2019-03-16T11:18:16.951Z,95577.37
2019-03-16T11:20:51.025Z,95575.53
2019-03-16T11:23:24.954Z,95574.52
2019-03-16T11:26:00.673Z,95588.28
2019-03-16T11:28:32.188Z,95593.44
2019-03-16T11:31:05.206Z,95590.63
2019-03-16T11:33:38.244Z,95583.62
2019-03-16T11:36:12.263Z,95582.28
2019-03-16T11:38:43.929Z,95573.07
2019-03-16T11:41:17.052Z,95583.21
2019-03-16T11:43:50.211Z,95570.38
2019-03-16T11:46:23.020Z,95552.47
2019-03-16T11:48:54.469Z,95557.91
2019-03-16T11:51:26.028Z,95567.36
2019-03-16T11:53:59.271Z,95574.97
2019-03-16T11:56:32.149Z,95551.63
2019-03-16T11:59:05.417Z,95558.39
2019-03-16T12:01:38.324Z,95547.57
2019-03-16T12:04:11.333Z,95561.73
2019-03-16T12:06:44.312Z,95561.83
2019-03-16T12:09:17.312Z,95541.61
2019-03-16T12:11:50.377Z,95547.34
2019-03-16T12:14:23.833Z,95541.57
2019-03-16T12:16:56.759Z,95534.55
2019-03-16T12:19:30.911Z,95546.42
2019-03-16T12:22:04.886Z,95543.86
2019-03-16T12:24:38.703Z,95530.34
2019-03-16T12:27:11.329Z,95534.60
2019-03-16T12:29:44.294Z,95526.41
2019-03-16T12:32:19.035Z,95529.52
2019-03-16T12:34:50.528Z,95528.56
2019-03-16T12:37:23.512Z,95530.41
2019-03-16T12:39:56.495Z,95513.97
2019-03-16T12:42:31.569Z,95526.78
2019-03-16T12:45:09.132Z,95531.49
2019-03-16T12:47:41.087Z,95544.93
2019-03-16T12:50:14.571Z,95535.88
2019-03-16T12:52:47.469Z,95541.22
2019-03-16T12:55:20.425Z,95546.41
2019-03-16T12:57:52.680Z,95540.00
2019-03-16T13:00:26.430Z,95539.05
2019-03-16T13:02:59.949Z,95541.14
2019-03-16T13:05:32.583Z,95550.11
2019-03-16T13:08:06.505Z,95550.20
2019-03-16T13:10:39.515Z,95559.81
2019-03-16T13:13:11.768Z,95548.76
2019-03-16T13:15:45.141Z,95545.84
2019-03-16T13:18:19.384Z,95555.08
2019-03-16T13:20:52.845Z,95541.54
2019-03-16T13:23:27.874Z,95546.25
2019-03-16T13:26:02.231Z,95542.73
2019-03-16T13:28:35.731Z,95544.29
2019-03-16T13:31:09.396Z,95545.38
2019-03-16T13:33:41.787Z,95550.37
2019-03-16T13:36:20.308Z,95553.25
2019-03-16T13:38:52.684Z,95559.83
2019-03-16T13:41:26.650Z,95557.66
2019-03-16T13:43:59.688Z,95564.76
2019-03-16T13:46:31.128Z,95557.36
2019-03-16T13:49:06.153Z,95552.38
2019-03-16T13:51:37.837Z,95556.16
2019-03-16T13:54:10.732Z,95553.86
2019-03-16T13:56:45.513Z,95568.97
2019-03-16T13:59:16.702Z,95573.77
2019-03-16T14:01:53.080Z,95569.37
2019-03-16T14:04:25.905Z,95566.42
2019-03-16T14:06:58.748Z,95568.58
2019-03-16T14:09:30.861Z,95567.55
2019-03-16T14:12:04.535Z,95570.66
2019-03-16T14:14:39.544Z,95561.15
2019-03-16T14:17:10.766Z,95563.11
2019-03-16T14:19:45.553Z,95561.06
2019-03-16T14:22:17.945Z,95554.11
2019-03-16T14:24:50.345Z,95558.81
2019-03-16T14:27:24.063Z,95555.90
2019-03-16T14:29:56.880Z,95537.02
2019-03-16T14:32:28.330Z,95532.79
2019-03-16T14:35:01.977Z,95531.27
2019-03-16T14:37:36.133Z,95518.87
2019-03-16T14:40:12.440Z,95534.91
2019-03-16T14:42:43.955Z,95465.05
2019-03-16T14:45:17.036Z,95525.54
2019-03-16T14:47:50.412Z,95514.84
2019-03-16T14:50:22.918Z,95518.59
2019-03-16T14:52:56.281Z,95507.85
2019-03-16T14:55:29.137Z,95501.09
2019-03-16T14:58:02.194Z,95505.23
2019-03-16T15:00:38.686Z,95503.19
2019-03-16T15:03:11.473Z,95489.95
2019-03-16T15:05:46.034Z,95488.98
2019-03-16T15:08:20.230Z,95490.15
2019-03-16T15:10:52.891Z,95489.87
2019-03-16T15:13:27.011Z,95495.72
2019-03-16T15:15:59.955Z,95489.06
2019-03-16T15:18:34.409Z,95495.98
2019-03-16T15:21:09.855Z,95481.47
2019-03-16T15:23:42.171Z,95498.20
2019-03-16T15:26:13.386Z,95486.16
2019-03-16T15:28:45.193Z,95485.95
2019-03-16T15:31:18.172Z,95485.75
2019-03-16T15:33:50.234Z,95484.00
2019-03-16T15:36:23.205Z,95471.80
2019-03-16T15:38:56.177Z,95485.00
2019-03-16T15:41:27.388Z,95495.25
2019-03-16T15:43:59.875Z,95479.66
2019-03-16T15:46:33.370Z,95479.55
2019-03-16T15:49:05.473Z,95468.80
2019-03-16T15:51:38.370Z,95466.66
2019-03-16T15:54:11.305Z,95461.69
2019-03-16T15:56:44.291Z,95469.92
2019-03-16T15:59:16.378Z,95468.03
2019-03-16T16:01:48.425Z,95463.12
2019-03-16T16:04:19.645Z,95459.23
2019-03-16T16:06:52.962Z,95456.59
2019-03-16T16:09:26.585Z,95456.33
2019-03-16T16:12:00.538Z,95460.03
2019-03-16T16:14:32.280Z,95457.46
2019-03-16T16:17:05.000Z,95467.12
2019-03-16T16:19:38.397Z,95468.58
2019-03-16T16:22:11.603Z,95470.28
2019-03-16T16:24:44.394Z,95488.64
2019-03-16T16:27:17.620Z,95472.34
2019-03-16T16:29:50.928Z,95462.92
2019-03-16T16:32:25.186Z,95469.24
2019-03-16T16:34:56.394Z,95477.25
2019-03-16T16:37:42.069Z,95464.19
2019-03-16T16:40:14.312Z,95471.08
2019-03-16T16:42:49.129Z,95471.00
2019-03-16T16:45:20.998Z,95480.69
2019-03-16T16:47:52.466Z,95484.63
2019-03-16T16:50:26.416Z,95478.97
2019-03-16T16:53:01.145Z,95479.40
2019-03-16T16:55:32.392Z,95473.59
2019-03-16T16:58:04.479Z,95467.69
2019-03-16T17:00:36.655Z,95465.58
2019-03-16T17:03:11.297Z,95478.69
2019-03-16T17:05:43.923Z,95481.64
2019-03-16T17:08:18.409Z,95474.88
2019-03-16T17:10:52.245Z,95472.26
2019-03-16T17:13:24.750Z,95479.11
2019-03-16T17:15:56.637Z,95483.88
2019-03-16T17:18:29.662Z,95482.00
2019-03-16T17:21:02.834Z,95491.03
2019-03-16T17:23:35.606Z,95487.41
2019-03-16T17:26:08.825Z,95482.34
2019-03-16T17:28:42.181Z,95493.13
2019-03-16T17:31:15.116Z,95491.30
2019-03-16T17:33:47.127Z,95484.14
2019-03-16T17:36:18.766Z,95492.32
2019-03-16T17:38:51.723Z,95487.12
2019-03-16T17:41:23.935Z,95494.80
2019-03-16T17:43:56.855Z,95498.98
2019-03-16T17:46:31.351Z,95497.69
2019-03-16T17:49:04.891Z,95498.66
2019-03-16T17:51:40.678Z,95498.79
2019-03-16T17:54:16.314Z,95505.99
2019-03-16T17:56:49.470Z,95500.55
2019-03-16T17:59:23.797Z,95509.44
2019-03-16T18:01:54.824Z,95510.25
2019-03-16T18:04:30.549Z,95511.45
2019-03-16T18:07:03.283Z,95510.30
2019-03-16T18:09:36.952Z,95507.33
2019-03-16T18:12:09.761Z,95509.11
2019-03-16T18:14:41.855Z,95506.73
2019-03-16T18:17:13.062Z,95503.90
2019-03-16T18:19:45.746Z,95513.38
2019-03-16T18:22:18.043Z,95508.25
2019-03-16T18:24:53.458Z,95510.08
2019-03-16T18:27:27.167Z,95505.78
2019-03-16T18:30:01.861Z,95505.50
2019-03-16T18:32:35.947Z,95500.76
2019-03-16T18:35:09.037Z,95502.64
2019-03-16T18:37:42.217Z,95504.87
2019-03-16T18:40:17.088Z,95499.02
2019-03-16T18:43:06.339Z,95497.19
2019-03-16T18:45:39.060Z,95496.18
2019-03-16T18:48:12.117Z,95504.09
2019-03-16T18:50:44.022Z,95498.64
2019-03-16T18:53:19.811Z,95499.64
2019-03-16T18:55:51.064Z,95504.34
2019-03-16T18:58:36.643Z,95502.52
2019-03-16T19:00:57.170Z,95500.97
2019-03-16T19:03:30.858Z,95506.95
2019-03-16T19:06:04.815Z,95497.31
2019-03-16T19:08:39.840Z,95502.62
2019-03-16T19:11:13.903Z,95498.89
2019-03-16T19:20:27.940Z,95504.49
2019-03-16T19:22:59.370Z,95507.77
2019-03-16T19:25:32.335Z,95502.33
2019-03-16T19:28:06.961Z,95491.61
2019-03-16T19:30:38.763Z,95494.39
2019-03-16T19:33:11.459Z,95488.48
2019-03-16T19:35:46.045Z,95483.94
2019-03-16T19:38:20.326Z,95486.22
2019-03-16T19:40:52.271Z,95490.27
2019-03-16T19:43:26.503Z,95481.65
2019-03-16T19:46:01.147Z,95486.50
2019-03-16T19:48:32.356Z,95490.01
2019-03-16T19:51:07.151Z,95482.92
2019-03-16T19:53:41.233Z,95478.78
2019-03-16T19:56:12.474Z,95475.23
2019-03-16T19:58:43.758Z,95478.48
2019-03-16T20:01:17.358Z,95480.45
2019-03-16T20:03:50.551Z,95483.05
2019-03-16T20:06:25.967Z,95485.30
2019-03-16T20:08:56.391Z,95485.61
2019-03-16T20:11:28.470Z,95484.91
2019-03-16T20:14:02.509Z,95484.70
2019-03-16T20:16:35.524Z,95476.55
2019-03-16T20:19:08.688Z,95471.01
2019-03-16T20:21:41.564Z,95479.03
2019-03-16T20:24:14.516Z,95471.27
2019-03-16T20:26:46.653Z,95481.46
2019-03-16T20:29:20.399Z,95482.76
2019-03-16T20:31:53.074Z,95485.20
2019-03-16T20:34:25.657Z,95483.47
2019-03-16T20:36:59.646Z,95479.35
2019-03-16T20:39:32.904Z,95472.64
2019-03-16T20:42:05.977Z,95470.66
2019-03-16T20:44:37.977Z,95465.37
2019-03-16T20:47:11.997Z,95466.55
2019-03-16T20:49:43.527Z,95466.21
2019-03-16T20:52:19.255Z,95469.58
2019-03-16T20:54:51.818Z,95471.43
2019-03-16T20:57:23.882Z,95469.45
2019-03-16T20:59:58.341Z,95467.98
2019-03-16T21:02:33.828Z,95466.14
2019-03-16T21:05:08.411Z,95468.44
2019-03-16T21:07:41.571Z,95473.55
2019-03-16T21:10:15.178Z,95463.47
2019-03-16T21:12:48.058Z,95471.71
2019-03-16T21:15:21.534Z,95466.72
2019-03-16T21:17:55.863Z,95463.14
2019-03-16T21:20:26.624Z,95465.90
2019-03-16T21:22:59.799Z,95464.04
2019-03-16T21:25:32.235Z,95462.52
2019-03-16T21:28:04.730Z,95460.99
2019-03-16T21:30:38.714Z,95461.48
2019-03-16T21:33:10.906Z,95456.38
2019-03-16T21:35:42.491Z,95457.41
2019-03-16T21:38:14.856Z,95453.72
2019-03-16T21:40:47.959Z,95453.51
2019-03-16T21:43:20.828Z,95452.38
2019-03-16T21:45:53.536Z,95450.52
2019-03-16T21:48:27.029Z,95450.40
2019-03-16T21:51:00.098Z,95452.00
2019-03-16T21:53:33.795Z,95459.82
2019-03-16T21:56:07.643Z,95469.80
2019-03-16T21:58:39.783Z,95457.30
2019-03-16T22:01:13.618Z,95449.41
2019-03-16T22:03:47.103Z,95454.62
2019-03-16T22:06:18.324Z,95447.44
2019-03-16T22:08:52.402Z,95458.09
2019-03-16T22:11:23.976Z,95458.22
2019-03-16T22:13:57.181Z,95454.51
2019-03-16T22:16:29.862Z,95453.83
2019-03-16T22:19:03.375Z,95449.06
2019-03-16T22:21:38.020Z,95448.61
2019-03-16T22:24:13.933Z,95440.97
2019-03-16T22:26:46.127Z,95452.34
2019-03-16T22:29:18.065Z,95442.37
2019-03-16T22:31:52.106Z,95436.23
2019-03-16T22:34:25.117Z,95447.46
2019-03-16T22:36:57.050Z,95436.01
2019-03-16T22:39:31.055Z,95439.56
2019-03-16T22:42:03.156Z,95434.25
2019-03-16T22:44:35.977Z,95444.80
2019-03-16T22:47:09.229Z,95438.08
2019-03-16T22:49:44.272Z,95423.72
2019-03-16T22:52:18.305Z,95427.42
2019-03-16T22:54:52.388Z,95424.61
2019-03-16T22:57:26.985Z,95431.23
2019-03-16T23:00:00.393Z,95415.59
2019-03-16T23:02:35.464Z,95418.22
2019-03-16T23:05:11.383Z,95411.98
2019-03-16T23:07:44.733Z,95410.36
2019-03-16T23:10:16.280Z,95404.70
2019-03-16T23:12:47.719Z,95403.88
2019-03-16T23:15:19.947Z,95400.75
2019-03-16T23:17:52.898Z,95392.08
2019-03-16T23:20:25.292Z,95406.30
2019-03-16T23:22:57.256Z,95337.31
2019-03-16T23:25:31.929Z,95396.38
2019-03-16T23:28:05.028Z,95407.53
2019-03-16T23:30:36.246Z,95398.55
2019-03-16T23:33:08.457Z,95396.03
2019-03-16T23:35:40.364Z,95394.14
2019-03-16T23:38:14.230Z,95392.98
2019-03-16T23:40:49.132Z,95392.50
2019-03-16T23:43:23.481Z,95389.84
2019-03-16T23:45:57.317Z,95395.63
2019-03-16T23:48:30.139Z,95389.59
2019-03-16T23:51:03.326Z,95386.11
2019-03-16T23:53:34.832Z,95376.19
2019-03-16T23:56:10.374Z,95374.58
2019-03-16T23:58:43.347Z,95367.16
